createdAt,value
2023-01-30T00:02:23.249Z,7.18
2023-01-30T00:04:56.771Z,7.07
2023-01-30T00:07:23.886Z,7.03
2023-01-30T00:09:57.781Z,7.18
2023-01-30T00:12:25.019Z,7.60
2023-01-30T00:14:52.109Z,6.32
2023-01-30T00:17:25.800Z,7.20
2023-01-30T00:19:52.944Z,7.07
2023-01-30T00:22:26.883Z,5.18
2023-01-30T00:24:54.370Z,7.45
2023-01-30T00:30:02.894Z,6.63
2023-01-30T00:32:36.813Z,6.80
2023-01-30T00:35:10.839Z,6.55
2023-01-30T00:37:37.947Z,7.30
2023-01-30T00:40:05.259Z,7.07
2023-01-30T00:42:57.727Z,7.78
2023-01-30T00:45:43.615Z,6.57
2023-01-30T00:48:17.743Z,7.68
2023-01-30T00:50:44.941Z,6.63
2023-01-30T00:53:12.555Z,5.85
2023-01-30T00:58:13.808Z,5.72
2023-01-30T01:00:40.957Z,6.38
2023-01-30T01:03:14.893Z,5.68
2023-01-30T01:05:55.656Z,4.35
2023-01-30T01:08:29.731Z,3.85
2023-01-30T01:10:56.888Z,4.57
2023-01-30T01:13:30.842Z,5.07
2023-01-30T01:15:58.026Z,5.30
2023-01-30T01:18:25.485Z,6.05
2023-01-30T01:20:59.811Z,4.93
2023-01-30T01:23:26.993Z,5.00
2023-01-30T01:26:00.875Z,5.03
2023-01-30T01:28:28.015Z,6.55
2023-01-30T01:31:08.046Z,4.60
2023-01-30T01:33:35.393Z,4.93
2023-01-30T01:36:04.688Z,5.13
2023-01-30T01:38:38.728Z,5.20
2023-01-30T01:41:10.143Z,4.63
2023-01-30T01:43:44.750Z,4.75
2023-01-30T01:46:18.904Z,4.90
2023-01-30T01:48:54.779Z,7.28
2023-01-30T01:51:27.377Z,4.43
2023-01-30T01:54:03.947Z,4.28
2023-01-30T01:56:32.734Z,6.13
2023-01-30T01:59:02.714Z,5.68
2023-01-30T02:01:36.849Z,4.82
2023-01-30T02:04:05.144Z,5.10
2023-01-30T02:06:46.848Z,4.68
2023-01-30T02:09:14.001Z,5.47
2023-01-30T02:12:03.734Z,5.22
2023-01-30T02:14:32.574Z,3.90
2023-01-30T02:17:06.873Z,4.22
2023-01-30T02:19:52.856Z,3.67
2023-01-30T02:22:38.826Z,3.75
2023-01-30T02:25:24.684Z,3.20
2023-01-30T02:28:16.820Z,6.63
2023-01-30T02:31:08.841Z,3.47
2023-01-30T02:33:58.227Z,4.13
2023-01-30T02:36:41.703Z,6.18
2023-01-30T02:39:47.247Z,4.85
2023-01-30T02:42:43.709Z,4.72
2023-01-30T02:45:17.143Z,5.13
2023-01-30T02:48:01.686Z,5.28
2023-01-30T02:50:31.479Z,5.15
2023-01-30T02:53:05.720Z,5.68
2023-01-30T02:55:33.260Z,4.68
2023-01-30T02:58:07.692Z,5.00
2023-01-30T03:01:03.712Z,5.10
2023-01-30T03:03:44.726Z,4.75
2023-01-30T03:06:38.744Z,5.30
2023-01-30T03:09:15.820Z,4.13
2023-01-30T03:11:45.971Z,4.10
2023-01-30T03:14:22.717Z,3.72
2023-01-30T03:16:51.235Z,4.68
2023-01-30T03:19:19.822Z,4.90
2023-01-30T03:21:53.757Z,4.85
2023-01-30T03:24:21.066Z,3.80
2023-01-30T03:26:56.763Z,3.78
2023-01-30T03:29:24.004Z,3.08
2023-01-30T03:31:57.815Z,3.80
2023-01-30T03:34:25.110Z,4.43
2023-01-30T03:36:52.329Z,3.72
2023-01-30T03:39:25.890Z,4.43
2023-01-30T03:41:54.052Z,2.83
2023-01-30T03:44:21.270Z,4.65
2023-01-30T03:46:54.782Z,4.40
2023-01-30T03:49:22.141Z,2.88
2023-01-30T03:51:55.743Z,3.20
2023-01-30T03:54:22.964Z,3.50
2023-01-30T03:56:50.047Z,4.25
2023-01-30T03:59:23.916Z,4.38
2023-01-30T04:01:51.103Z,3.63
2023-01-30T04:04:18.246Z,4.65
2023-01-30T04:06:51.989Z,3.50
2023-01-30T04:09:19.236Z,4.55
2023-01-30T04:11:46.425Z,5.03
2023-01-30T04:14:19.772Z,4.80
2023-01-30T04:16:47.032Z,4.53
2023-01-30T04:19:20.864Z,4.95
2023-01-30T04:21:48.187Z,4.65
2023-01-30T04:24:21.882Z,4.05
2023-01-30T04:26:48.959Z,5.03
2023-01-30T04:29:16.258Z,4.22
2023-01-30T04:31:49.779Z,4.10
2023-01-30T04:34:16.890Z,3.75
2023-01-30T04:36:50.835Z,4.72
2023-01-30T04:39:19.433Z,4.45
2023-01-30T04:41:47.744Z,4.68
2023-01-30T04:44:21.881Z,4.43
2023-01-30T04:46:49.040Z,3.97
2023-01-30T04:49:22.955Z,4.45
2023-01-30T04:51:50.100Z,5.30
2023-01-30T04:54:17.311Z,4.20
2023-01-30T04:56:50.889Z,5.10
2023-01-30T04:59:18.000Z,5.22
2023-01-30T05:01:51.857Z,4.85
2023-01-30T05:04:19.025Z,3.88
2023-01-30T05:07:00.026Z,5.28
2023-01-30T05:09:27.174Z,4.93
2023-01-30T05:11:54.257Z,3.42
2023-01-30T05:14:27.820Z,5.50
2023-01-30T05:16:55.676Z,2.85
2023-01-30T05:19:22.800Z,3.42
2023-01-30T05:21:56.834Z,3.58
2023-01-30T05:24:23.988Z,3.72
2023-01-30T05:26:57.856Z,3.78
2023-01-30T05:29:25.029Z,4.13
2023-01-30T05:31:52.300Z,2.97
2023-01-30T05:34:25.856Z,4.25
2023-01-30T05:36:52.986Z,3.85
2023-01-30T05:39:26.804Z,3.83
2023-01-30T05:41:53.928Z,3.38
2023-01-30T05:44:21.258Z,4.97
2023-01-30T05:46:54.864Z,3.55
2023-01-30T05:49:21.979Z,3.03
2023-01-30T05:51:55.870Z,4.40
2023-01-30T05:54:22.935Z,3.45
2023-01-30T05:56:50.873Z,3.72
2023-01-30T05:59:27.788Z,3.83
2023-01-30T06:01:55.076Z,3.88
2023-01-30T06:04:28.811Z,4.85
2023-01-30T06:07:16.730Z,3.60
2023-01-30T06:09:50.912Z,5.73
2023-01-30T06:12:18.387Z,3.95
2023-01-30T06:14:45.481Z,3.90
2023-01-30T06:17:19.024Z,3.25
2023-01-30T06:19:46.313Z,2.92
2023-01-30T06:22:13.412Z,4.15
2023-01-30T06:24:46.805Z,4.03
2023-01-30T06:27:14.491Z,4.65
2023-01-30T06:29:47.939Z,3.85
2023-01-30T06:32:15.293Z,3.50
2023-01-30T06:34:42.379Z,4.43
2023-01-30T06:37:15.834Z,4.13
2023-01-30T06:39:42.990Z,5.05
2023-01-30T06:42:16.958Z,3.67
2023-01-30T06:44:44.202Z,3.75
2023-01-30T06:47:11.271Z,3.50
2023-01-30T06:49:45.014Z,3.30
2023-01-30T06:52:12.191Z,3.33
2023-01-30T06:54:39.285Z,3.03
2023-01-30T06:57:12.932Z,3.50
2023-01-30T06:59:40.240Z,3.45
2023-01-30T07:02:14.053Z,3.17
2023-01-30T07:04:41.652Z,4.13
2023-01-30T07:09:58.578Z,3.35
2023-01-30T07:12:33.771Z,3.28
2023-01-30T07:15:08.042Z,3.00
2023-01-30T07:17:35.249Z,3.47
2023-01-30T07:20:02.420Z,5.05
2023-01-30T07:22:50.900Z,3.13
2023-01-30T07:25:25.416Z,3.40
2023-01-30T07:28:06.919Z,3.03
2023-01-30T07:30:36.271Z,3.75
2023-01-30T07:33:10.974Z,3.75
2023-01-30T07:35:38.479Z,3.88
2023-01-30T07:38:06.129Z,3.15
2023-01-30T07:40:39.837Z,3.28
2023-01-30T07:43:08.519Z,3.13
2023-01-30T07:45:43.815Z,3.83
2023-01-30T07:48:14.772Z,3.28
2023-01-30T07:50:48.868Z,2.97
2023-01-30T07:53:17.507Z,2.90
2023-01-30T07:55:44.860Z,3.67
2023-01-30T07:58:20.830Z,3.45
2023-01-30T08:00:48.057Z,3.55
2023-01-30T08:03:23.004Z,5.20
2023-01-30T08:05:56.799Z,3.15
2023-01-30T08:08:36.836Z,3.35
2023-01-30T08:11:10.905Z,3.45
2023-01-30T08:13:38.144Z,3.45
2023-01-30T08:16:06.352Z,3.55
2023-01-30T08:18:40.879Z,3.33
2023-01-30T08:21:08.147Z,2.85
2023-01-30T08:23:41.884Z,2.92
2023-01-30T08:26:08.990Z,3.78
2023-01-30T08:28:36.154Z,2.53
2023-01-30T08:31:10.003Z,2.92
2023-01-30T08:33:37.211Z,3.25
2023-01-30T08:36:10.873Z,2.58
2023-01-30T08:38:38.048Z,3.15
2023-01-30T08:41:05.719Z,2.92
2023-01-30T08:43:39.852Z,2.60
2023-01-30T08:46:07.850Z,3.63
2023-01-30T08:48:49.661Z,3.10
2023-01-30T08:51:17.365Z,3.63
2023-01-30T08:53:50.933Z,3.72
2023-01-30T08:56:18.189Z,3.90
2023-01-30T08:58:46.636Z,3.28
2023-01-30T09:01:21.028Z,2.80
2023-01-30T09:03:48.494Z,3.70
2023-01-30T09:08:56.830Z,2.30
2023-01-30T09:11:30.895Z,3.35
2023-01-30T09:13:58.077Z,3.85
2023-01-30T09:16:25.245Z,2.55
2023-01-30T09:18:58.859Z,2.92
2023-01-30T09:21:26.070Z,2.60
2023-01-30T09:23:59.941Z,2.85
2023-01-30T09:26:27.198Z,3.78
2023-01-30T09:28:54.279Z,2.70
2023-01-30T09:31:27.882Z,2.85
2023-01-30T09:33:55.309Z,2.67
2023-01-30T09:36:28.893Z,3.03
2023-01-30T09:38:55.995Z,2.63
2023-01-30T09:41:23.188Z,2.38
2023-01-30T09:43:57.007Z,2.50
2023-01-30T09:46:30.362Z,2.08
2023-01-30T09:49:08.091Z,2.20
2023-01-30T09:51:41.136Z,2.53
2023-01-30T09:54:28.925Z,2.00
2023-01-30T09:56:58.508Z,2.10
2023-01-30T09:59:41.889Z,2.13
2023-01-30T10:02:27.729Z,2.60
2023-01-30T10:05:03.935Z,2.20
2023-01-30T10:07:37.700Z,2.65
2023-01-30T10:10:17.234Z,2.90
2023-01-30T10:12:59.839Z,2.42
2023-01-30T10:15:42.031Z,2.33
2023-01-30T10:18:15.683Z,2.90
2023-01-30T10:20:57.743Z,2.03
2023-01-30T10:23:44.566Z,2.63
2023-01-30T10:26:37.119Z,2.70
2023-01-30T10:29:08.193Z,2.55
2023-01-30T10:31:48.006Z,2.90
2023-01-30T10:34:21.792Z,2.08
2023-01-30T10:36:56.024Z,2.13
2023-01-30T10:39:43.449Z,1.98
2023-01-30T10:42:31.998Z,2.00
2023-01-30T10:45:07.017Z,2.70
2023-01-30T10:47:48.169Z,1.85
2023-01-30T10:50:16.080Z,1.80
2023-01-30T10:53:09.029Z,2.00
2023-01-30T10:55:38.604Z,1.83
2023-01-30T10:58:30.978Z,1.90
2023-01-30T11:01:17.383Z,2.20
2023-01-30T11:03:55.029Z,2.15
2023-01-30T11:06:31.882Z,2.83
2023-01-30T11:09:12.896Z,2.22
2023-01-30T11:11:50.569Z,2.20
2023-01-30T11:14:23.881Z,2.78
2023-01-30T11:16:52.069Z,2.38
2023-01-30T11:19:28.001Z,2.60
2023-01-30T11:21:56.533Z,2.40
2023-01-30T11:24:24.694Z,2.65
2023-01-30T11:26:59.924Z,2.92
2023-01-30T11:29:31.306Z,2.58
2023-01-30T11:32:09.088Z,1.88
2023-01-30T11:34:36.568Z,3.45
2023-01-30T11:37:28.901Z,2.08
2023-01-30T11:39:56.840Z,2.15
2023-01-30T11:42:32.942Z,1.98
2023-01-30T11:45:16.059Z,2.13
2023-01-30T11:48:03.777Z,1.52
2023-01-30T11:50:36.438Z,1.60
2023-01-30T11:53:20.899Z,1.92
2023-01-30T11:56:01.902Z,1.90
2023-01-30T11:58:38.905Z,1.80
2023-01-30T12:01:06.283Z,1.55
2023-01-30T12:03:40.910Z,1.48
2023-01-30T12:06:14.861Z,1.25
2023-01-30T12:08:58.916Z,1.35
2023-01-30T12:11:27.926Z,1.30
2023-01-30T12:14:04.909Z,1.10
2023-01-30T12:16:50.809Z,1.30
2023-01-30T12:19:38.896Z,1.50
2023-01-30T12:22:22.001Z,1.73
2023-01-30T12:24:58.887Z,1.35
2023-01-30T12:27:30.726Z,1.90
2023-01-30T12:30:07.921Z,1.30
2023-01-30T12:32:35.571Z,1.67
2023-01-30T12:38:01.997Z,1.00
2023-01-30T12:40:44.730Z,1.10
2023-01-30T12:43:16.167Z,1.63
2023-01-30T12:45:58.980Z,1.50
2023-01-30T12:48:48.184Z,1.15
2023-01-30T12:51:30.956Z,1.30
2023-01-30T12:54:20.290Z,1.05
2023-01-30T12:56:55.084Z,1.20
2023-01-30T12:59:22.323Z,0.80
2023-01-30T13:02:09.586Z,1.20
2023-01-30T13:05:01.942Z,1.13
2023-01-30T13:07:56.901Z,1.75
2023-01-30T13:10:55.852Z,1.10
2023-01-30T13:13:32.911Z,1.00
2023-01-30T13:16:13.854Z,1.05
2023-01-30T13:19:03.040Z,1.00
2023-01-30T13:21:47.654Z,1.17
2023-01-30T13:24:47.066Z,1.52
2023-01-30T13:29:41.954Z,1.00
2023-01-30T13:32:21.929Z,0.95
2023-01-30T13:34:49.505Z,1.52
2023-01-30T13:39:52.746Z,0.90
2023-01-30T13:42:35.096Z,0.93
2023-01-30T13:45:05.434Z,1.05
2023-01-30T13:47:42.010Z,1.60
2023-01-30T13:50:21.623Z,1.00
2023-01-30T13:53:01.958Z,0.85
2023-01-30T13:55:40.619Z,0.90
2023-01-30T13:58:23.962Z,1.13
2023-01-30T14:00:55.084Z,0.90
2023-01-30T14:03:55.155Z,0.93
2023-01-30T14:06:50.855Z,1.30
2023-01-30T14:09:27.250Z,0.80
2023-01-30T14:12:04.996Z,1.17
2023-01-30T14:14:33.707Z,2.03
2023-01-30T14:17:21.965Z,1.17
2023-01-30T14:19:59.704Z,1.10
2023-01-30T14:22:35.866Z,1.42
2023-01-30T14:25:21.903Z,1.00
2023-01-30T14:28:01.917Z,0.77
2023-01-30T14:30:32.231Z,1.13
2023-01-30T14:33:06.905Z,0.98
2023-01-30T14:35:34.470Z,1.80
2023-01-30T14:40:37.937Z,1.45
2023-01-30T14:43:14.928Z,0.98
2023-01-30T14:45:55.043Z,1.25
2023-01-30T14:48:28.260Z,1.17
2023-01-30T14:51:20.955Z,1.10
2023-01-30T14:54:06.898Z,1.23
2023-01-30T14:56:54.394Z,1.35
2023-01-30T14:59:36.873Z,0.98
2023-01-30T15:02:13.479Z,1.10
2023-01-30T15:05:02.124Z,1.40
2023-01-30T15:07:41.940Z,1.63
2023-01-30T15:10:37.958Z,1.20
2023-01-30T15:13:24.022Z,1.38
2023-01-30T15:16:16.876Z,1.25
2023-01-30T15:19:04.010Z,1.27
2023-01-30T15:21:55.857Z,1.40
2023-01-30T15:24:45.347Z,1.30
2023-01-30T15:27:18.866Z,1.30
2023-01-30T15:29:46.069Z,1.17
2023-01-30T15:32:26.969Z,1.50
2023-01-30T15:34:57.255Z,1.50
2023-01-30T15:37:44.171Z,1.52
2023-01-30T15:40:22.228Z,1.65
2023-01-30T15:43:00.974Z,1.48
2023-01-30T15:45:33.979Z,2.10
2023-01-30T15:48:18.113Z,1.55
2023-01-30T15:50:49.749Z,1.23
2023-01-30T15:53:17.416Z,2.33
2023-01-30T15:58:20.165Z,1.45
2023-01-30T16:00:55.139Z,1.73
2023-01-30T16:03:24.024Z,1.48
2023-01-30T16:06:05.437Z,2.63
2023-01-30T16:08:39.924Z,2.72
2023-01-30T16:11:14.218Z,2.55
2023-01-30T16:13:42.638Z,2.70
2023-01-30T16:16:21.072Z,3.17
2023-01-30T16:18:50.669Z,2.25
2023-01-30T16:21:19.306Z,2.47
2023-01-30T16:24:03.962Z,2.72
2023-01-30T16:26:32.481Z,4.05
2023-01-30T16:29:19.222Z,2.28
2023-01-30T16:31:47.571Z,1.90
2023-01-30T16:34:40.941Z,1.90
2023-01-30T16:37:30.923Z,1.42
2023-01-30T16:40:17.164Z,1.83
2023-01-30T16:43:10.892Z,1.88
2023-01-30T16:45:40.267Z,2.38
2023-01-30T16:48:19.916Z,2.65
2023-01-30T16:50:47.829Z,2.30
2023-01-30T16:53:22.880Z,2.60
2023-01-30T16:56:13.740Z,1.65
2023-01-30T16:58:47.881Z,1.40
2023-01-30T17:01:15.194Z,1.25
2023-01-30T17:03:49.919Z,1.23
2023-01-30T17:06:30.850Z,0.88
2023-01-30T17:09:13.906Z,1.30
2023-01-30T17:11:42.260Z,1.15
2023-01-30T17:14:39.895Z,1.00
2023-01-30T17:17:10.338Z,1.00
2023-01-30T17:19:44.016Z,1.30
2023-01-30T17:22:24.572Z,0.93
2023-01-30T17:24:59.054Z,1.30
2023-01-30T17:27:27.936Z,0.82
2023-01-30T17:29:55.207Z,1.13
2023-01-30T17:32:29.055Z,1.13
2023-01-30T17:34:56.372Z,1.20
2023-01-30T17:37:29.993Z,1.10
2023-01-30T17:39:57.276Z,1.33
2023-01-30T17:42:24.475Z,1.30
2023-01-30T17:44:57.987Z,1.10
2023-01-30T17:47:25.135Z,1.00
2023-01-30T17:49:59.101Z,1.67
2023-01-30T17:52:26.343Z,0.90
2023-01-30T17:54:53.428Z,0.90
2023-01-30T17:57:26.995Z,0.80
2023-01-30T17:59:55.217Z,0.95
2023-01-30T18:02:22.417Z,1.13
2023-01-30T18:04:56.048Z,0.95
2023-01-30T18:07:30.039Z,1.50
2023-01-30T18:10:04.120Z,1.02
2023-01-30T18:12:31.338Z,1.30
2023-01-30T18:14:58.679Z,1.17
2023-01-30T18:17:35.073Z,1.10
2023-01-30T18:20:03.712Z,0.80
2023-01-30T18:22:39.107Z,0.70
2023-01-30T18:25:06.467Z,1.20
2023-01-30T18:27:33.722Z,0.95
2023-01-30T18:30:07.050Z,1.00
2023-01-30T18:32:37.657Z,1.25
2023-01-30T18:35:05.140Z,1.00
2023-01-30T18:37:39.160Z,1.10
2023-01-30T18:40:06.550Z,1.42
2023-01-30T18:42:33.699Z,1.23
2023-01-30T18:45:07.076Z,0.95
2023-01-30T18:47:34.220Z,0.88
2023-01-30T18:50:08.213Z,1.13
2023-01-30T18:52:35.570Z,1.05
2023-01-30T18:55:02.708Z,1.13
2023-01-30T18:57:36.256Z,0.70
2023-01-30T19:00:03.501Z,1.23
2023-01-30T19:02:37.412Z,0.98
2023-01-30T19:05:04.630Z,1.05
2023-01-30T19:07:45.236Z,1.13
2023-01-30T19:10:17.111Z,1.13
2023-01-30T19:13:10.145Z,1.02
2023-01-30T19:15:37.395Z,1.50
2023-01-30T19:18:04.644Z,1.50
2023-01-30T19:20:38.084Z,2.00
2023-01-30T19:23:05.247Z,1.90
2023-01-30T19:25:39.084Z,1.30
2023-01-30T19:28:06.601Z,1.50
2023-01-30T19:33:06.938Z,1.30
2023-01-30T19:35:34.678Z,1.70
2023-01-30T19:38:07.994Z,1.98
2023-01-30T19:40:35.293Z,1.33
2023-01-30T19:43:10.354Z,1.13
2023-01-30T19:45:49.032Z,1.33
2023-01-30T19:48:16.128Z,0.85
2023-01-30T19:50:43.357Z,1.00
2023-01-30T19:53:17.030Z,1.58
2023-01-30T19:55:49.416Z,0.75
2023-01-30T19:58:23.002Z,1.10
2023-01-30T20:00:50.290Z,1.25
2023-01-30T20:03:24.251Z,1.70
2023-01-30T20:05:51.542Z,1.10
2023-01-30T20:08:32.944Z,0.93
2023-01-30T20:11:08.336Z,1.40
2023-01-30T20:13:46.138Z,1.15
2023-01-30T20:16:14.344Z,1.65
2023-01-30T20:18:41.765Z,0.90
2023-01-30T20:21:15.999Z,1.27
2023-01-30T20:23:46.833Z,1.20
2023-01-30T20:26:22.161Z,1.27
2023-01-30T20:28:49.426Z,1.50
2023-01-30T20:31:21.317Z,1.20
2023-01-30T20:33:55.097Z,1.90
2023-01-30T20:36:22.318Z,1.52
2023-01-30T20:38:50.057Z,1.35
2023-01-30T20:41:27.014Z,1.58
2023-01-30T20:43:57.375Z,1.70
2023-01-30T20:46:34.194Z,1.42
2023-01-30T20:49:01.522Z,1.48
2023-01-30T20:51:30.396Z,1.60
2023-01-30T20:54:05.444Z,1.48
2023-01-30T20:56:37.701Z,1.40
2023-01-30T20:59:13.002Z,1.23
2023-01-30T21:01:40.559Z,1.15
2023-01-30T21:06:45.745Z,1.30
2023-01-30T21:09:22.038Z,1.30
2023-01-30T21:11:56.355Z,1.45
2023-01-30T21:14:30.207Z,1.30
2023-01-30T21:16:57.491Z,1.50
2023-01-30T21:19:24.592Z,1.17
2023-01-30T21:22:01.029Z,1.60
2023-01-30T21:24:29.421Z,1.17
2023-01-30T21:27:04.053Z,1.67
2023-01-30T21:29:31.287Z,1.60
2023-01-30T21:32:05.105Z,1.08
2023-01-30T21:34:35.141Z,1.10
2023-01-30T21:37:28.194Z,1.30
2023-01-30T21:40:13.941Z,1.48
2023-01-30T21:43:06.214Z,1.70
2023-01-30T21:45:33.384Z,1.08
2023-01-30T21:48:00.498Z,1.27
2023-01-30T21:50:35.350Z,2.22
2023-01-30T21:53:02.558Z,1.58
2023-01-30T21:55:29.708Z,1.10
2023-01-30T21:58:04.053Z,1.45
2023-01-30T22:00:31.208Z,1.33
2023-01-30T22:03:05.205Z,2.65
2023-01-30T22:05:36.501Z,1.70
2023-01-30T22:08:24.177Z,1.77
2023-01-30T22:10:57.962Z,1.38
2023-01-30T22:13:32.297Z,1.85
2023-01-30T22:16:08.950Z,1.73
2023-01-30T22:18:43.178Z,1.77
2023-01-30T22:21:19.471Z,1.30
2023-01-30T22:23:54.875Z,1.42
2023-01-30T22:26:23.177Z,1.63
2023-01-30T22:29:01.184Z,1.52
2023-01-30T22:31:30.475Z,1.33
2023-01-30T22:33:57.690Z,1.50
2023-01-30T22:36:32.101Z,1.50
2023-01-30T22:38:59.452Z,1.83
2023-01-30T22:41:34.194Z,1.85
2023-01-30T22:44:02.089Z,1.83
2023-01-30T22:46:32.276Z,2.05
2023-01-30T22:49:07.206Z,1.80
2023-01-30T22:51:35.891Z,1.98
2023-01-30T22:54:04.827Z,2.45
2023-01-30T22:56:43.054Z,1.70
2023-01-30T22:59:10.815Z,2.08
2023-01-30T23:01:46.123Z,1.85
2023-01-30T23:04:17.588Z,1.80
2023-01-30T23:06:52.072Z,1.98
2023-01-30T23:09:26.084Z,2.45
2023-01-30T23:12:20.201Z,1.88
2023-01-30T23:14:47.427Z,1.77
2023-01-30T23:17:40.268Z,2.00
2023-01-30T23:20:07.928Z,2.50
2023-01-30T23:25:09.027Z,1.45
2023-01-30T23:27:36.704Z,1.73
2023-01-30T23:30:10.115Z,2.00
2023-01-30T23:32:38.082Z,1.80
2023-01-30T23:35:12.260Z,2.25
2023-01-30T23:37:58.539Z,1.90
2023-01-30T23:40:32.283Z,1.85
2023-01-30T23:42:59.427Z,2.58
2023-01-30T23:45:28.391Z,1.73
2023-01-30T23:48:02.121Z,1.83
2023-01-30T23:50:29.282Z,1.80
2023-01-30T23:52:56.360Z,1.33
2023-01-30T23:55:36.312Z,1.40
2023-01-30T23:58:03.492Z,1.83
